RYR94JD EGNM-EIDW
Flight info
| Callsign | RYR94JD |
|---|---|
| Flight time | 0h 31m |
| Altitude | 24000 |
| Route | NELSA DCT CROFT Y70 KOLID L70 PENIL L28 LELDO M145 BAGSO BAGSO4L |
| Aircraft | B738/M-SDE2E3FGHIRWXY/LB1 |
Departure
| Time | 2026-05-04 04:21 |
|---|---|
| Airport | Leeds Bradford Airport (EGNM) |
Arrival
| Time | 2026-05-04 04:53 |
|---|---|
| Airport | Dublin Airport (EIDW) |
| Time | Latitude | Longitude | Altitude | Speed | Heading |
|---|---|---|---|---|---|
| 2026-05-04 04:01 | 53.86876 | -1.65482 | 664 ft | 0 kts | 1° |
| 2026-05-04 04:15 | 53.86862 | -1.65483 | 664 ft | 4 kts | 9° |
| 2026-05-04 04:15 | 53.86837 | -1.65497 | 663 ft | 4 kts | 38° |
| 2026-05-04 04:15 | 53.86821 | -1.65531 | 663 ft | 4 kts | 69° |
| 2026-05-04 04:16 | 53.86815 | -1.65574 | 663 ft | 4 kts | 87° |
| 2026-05-04 04:16 | 53.86814 | -1.65605 | 663 ft | 0 kts | 91° |
| 2026-05-04 04:17 | 53.86814 | -1.65599 | 663 ft | 3 kts | 90° |
| 2026-05-04 04:18 | 53.86815 | -1.65513 | 663 ft | 9 kts | 90° |
| 2026-05-04 04:18 | 53.86781 | -1.65416 | 661 ft | 11 kts | 160° |
| 2026-05-04 04:18 | 53.86702 | -1.65410 | 659 ft | 12 kts | 194° |
| 2026-05-04 04:18 | 53.86620 | -1.65426 | 662 ft | 12 kts | 182° |
| 2026-05-04 04:19 | 53.86541 | -1.65434 | 666 ft | 11 kts | 183° |
| 2026-05-04 04:19 | 53.86449 | -1.65444 | 670 ft | 20 kts | 183° |
| 2026-05-04 04:19 | 53.86274 | -1.65461 | 679 ft | 21 kts | 184° |
| 2026-05-04 04:19 | 53.86145 | -1.65370 | 680 ft | 20 kts | 137° |
| 2026-05-04 04:20 | 53.86038 | -1.65203 | 674 ft | 22 kts | 139° |
| 2026-05-04 04:20 | 53.85925 | -1.65010 | 665 ft | 25 kts | 116° |
| 2026-05-04 04:20 | 53.85882 | -1.64947 | 663 ft | 5 kts | 253° |
| 2026-05-04 04:20 | 53.85913 | -1.65014 | 664 ft | 16 kts | 317° |
| 2026-05-04 04:21 | 53.86157 | -1.65392 | 680 ft | 98 kts | 317° |
| 2026-05-04 04:21 | 53.86907 | -1.66549 | 880 ft | 180 kts | 317° |
| 2026-05-04 04:21 | 53.87883 | -1.67970 | 2065 ft | 190 kts | 319° |
| 2026-05-04 04:21 | 53.88770 | -1.69594 | 3419 ft | 185 kts | 307° |
| 2026-05-04 04:22 | 53.89558 | -1.71275 | 4631 ft | 181 kts | 306° |
| 2026-05-04 04:22 | 53.90007 | -1.73226 | 5707 ft | 182 kts | 269° |
| 2026-05-04 04:22 | 53.89644 | -1.75414 | 6343 ft | 213 kts | 240° |
| 2026-05-04 04:22 | 53.89143 | -1.77985 | 6625 ft | 252 kts | 267° |
| 2026-05-04 04:23 | 53.88983 | -1.81158 | 6913 ft | 288 kts | 253° |
| 2026-05-04 04:23 | 53.87927 | -1.84270 | 7024 ft | 325 kts | 232° |
| 2026-05-04 04:23 | 53.86797 | -1.87684 | 6989 ft | 356 kts | 253° |
| 2026-05-04 04:23 | 53.86599 | -1.91950 | 7025 ft | 360 kts | 273° |
| 2026-05-04 04:24 | 53.86777 | -1.96193 | 7007 ft | 361 kts | 272° |
| 2026-05-04 04:24 | 53.86838 | -2.00431 | 7001 ft | 360 kts | 269° |
| 2026-05-04 04:24 | 53.86774 | -2.04663 | 7000 ft | 359 kts | 267° |
| 2026-05-04 04:24 | 53.86644 | -2.08893 | 7002 ft | 359 kts | 266° |
| 2026-05-04 04:25 | 53.86496 | -2.13122 | 7003 ft | 359 kts | 266° |
| 2026-05-04 04:25 | 53.86060 | -2.17263 | 6987 ft | 362 kts | 248° |
| 2026-05-04 04:25 | 53.84738 | -2.20861 | 7662 ft | 369 kts | 231° |
| 2026-05-04 04:25 | 53.82919 | -2.23998 | 8298 ft | 377 kts | 222° |
| 2026-05-04 04:26 | 53.80926 | -2.26933 | 9007 ft | 382 kts | 220° |
| 2026-05-04 04:26 | 53.78866 | -2.29895 | 9712 ft | 386 kts | 220° |
| 2026-05-04 04:26 | 53.76841 | -2.32831 | 10351 ft | 390 kts | 221° |
| 2026-05-04 04:26 | 53.74783 | -2.35858 | 10952 ft | 394 kts | 221° |
| 2026-05-04 04:27 | 53.72716 | -2.38931 | 11517 ft | 399 kts | 221° |
| 2026-05-04 04:27 | 53.70630 | -2.42052 | 12053 ft | 402 kts | 221° |
| 2026-05-04 04:27 | 53.68527 | -2.45203 | 12558 ft | 406 kts | 221° |
| 2026-05-04 04:27 | 53.66410 | -2.48367 | 13031 ft | 409 kts | 221° |
| 2026-05-04 04:28 | 53.64294 | -2.51621 | 13469 ft | 413 kts | 226° |
| 2026-05-04 04:28 | 53.62499 | -2.55405 | 13877 ft | 416 kts | 237° |
| 2026-05-04 04:28 | 53.61154 | -2.59726 | 14281 ft | 419 kts | 248° |
| 2026-05-04 04:28 | 53.60312 | -2.64428 | 14670 ft | 421 kts | 257° |
| 2026-05-04 04:29 | 53.59901 | -2.69327 | 15018 ft | 424 kts | 266° |
| 2026-05-04 04:29 | 53.59970 | -2.74311 | 15347 ft | 427 kts | 273° |
| 2026-05-04 04:29 | 53.60177 | -2.79310 | 15659 ft | 429 kts | 274° |
| 2026-05-04 04:29 | 53.60412 | -2.84338 | 15944 ft | 432 kts | 274° |
| 2026-05-04 04:30 | 53.60648 | -2.89386 | 16215 ft | 434 kts | 274° |
| 2026-05-04 04:30 | 53.60874 | -2.94451 | 16474 ft | 436 kts | 274° |
| 2026-05-04 04:30 | 53.61088 | -2.99564 | 16720 ft | 438 kts | 274° |
| 2026-05-04 04:30 | 53.61293 | -3.04709 | 16951 ft | 440 kts | 273° |
| 2026-05-04 04:31 | 53.61490 | -3.09852 | 17168 ft | 441 kts | 273° |
| 2026-05-04 04:31 | 53.61682 | -3.15032 | 17373 ft | 443 kts | 273° |
| 2026-05-04 04:31 | 53.61871 | -3.20217 | 17566 ft | 444 kts | 273° |
| 2026-05-04 04:31 | 53.62058 | -3.25417 | 17747 ft | 446 kts | 273° |
| 2026-05-04 04:32 | 53.62243 | -3.30642 | 17918 ft | 447 kts | 273° |
| 2026-05-04 04:32 | 53.62427 | -3.35881 | 18080 ft | 449 kts | 273° |
| 2026-05-04 04:32 | 53.62609 | -3.41130 | 18232 ft | 450 kts | 273° |
| 2026-05-04 04:32 | 53.62790 | -3.46401 | 18375 ft | 451 kts | 273° |
| 2026-05-04 04:33 | 53.62969 | -3.51674 | 18480 ft | 451 kts | 273° |
| 2026-05-04 04:33 | 53.63146 | -3.56959 | 18504 ft | 452 kts | 273° |
| 2026-05-04 04:33 | 53.63320 | -3.62238 | 18515 ft | 452 kts | 273° |
| 2026-05-04 04:33 | 53.63492 | -3.67532 | 18539 ft | 453 kts | 273° |
| 2026-05-04 04:34 | 53.63662 | -3.72830 | 18571 ft | 453 kts | 273° |
| 2026-05-04 04:34 | 53.63830 | -3.78123 | 18597 ft | 453 kts | 272° |
| 2026-05-04 04:34 | 53.63995 | -3.83423 | 18618 ft | 453 kts | 272° |
| 2026-05-04 04:34 | 53.64158 | -3.88707 | 18598 ft | 447 kts | 272° |
| 2026-05-04 04:35 | 53.64315 | -3.93871 | 18148 ft | 440 kts | 272° |
| 2026-05-04 04:35 | 53.64467 | -3.98970 | 18049 ft | 444 kts | 272° |
| 2026-05-04 04:35 | 53.64621 | -4.04178 | 18008 ft | 446 kts | 272° |
| 2026-05-04 04:35 | 53.64772 | -4.09397 | 18006 ft | 446 kts | 272° |
| 2026-05-04 04:36 | 53.64922 | -4.14631 | 18003 ft | 447 kts | 272° |
| 2026-05-04 04:36 | 53.65069 | -4.19861 | 18000 ft | 447 kts | 272° |
| 2026-05-04 04:36 | 53.65214 | -4.25084 | 18001 ft | 447 kts | 272° |
| 2026-05-04 04:36 | 53.65357 | -4.30317 | 18002 ft | 447 kts | 272° |
| 2026-05-04 04:37 | 53.65771 | -4.46022 | 18001 ft | 447 kts | 272° |
| 2026-05-04 04:37 | 53.65905 | -4.51259 | 18001 ft | 447 kts | 272° |
| 2026-05-04 04:38 | 53.66037 | -4.56500 | 18001 ft | 447 kts | 272° |
| 2026-05-04 04:38 | 53.66166 | -4.61739 | 18001 ft | 447 kts | 272° |
| 2026-05-04 04:38 | 53.66293 | -4.66973 | 18001 ft | 447 kts | 272° |
| 2026-05-04 04:38 | 53.66417 | -4.72199 | 18001 ft | 447 kts | 272° |
| 2026-05-04 04:39 | 53.66538 | -4.77378 | 17752 ft | 434 kts | 272° |
| 2026-05-04 04:39 | 53.66654 | -4.82425 | 16881 ft | 429 kts | 272° |
| 2026-05-04 04:39 | 53.66767 | -4.87439 | 15817 ft | 428 kts | 272° |
| 2026-05-04 04:39 | 53.66877 | -4.92441 | 14831 ft | 425 kts | 272° |
| 2026-05-04 04:40 | 53.66985 | -4.97388 | 13992 ft | 418 kts | 272° |
| 2026-05-04 04:40 | 53.67088 | -5.02243 | 13194 ft | 411 kts | 271° |
| 2026-05-04 04:40 | 53.67188 | -5.07025 | 12384 ft | 405 kts | 271° |
| 2026-05-04 04:40 | 53.67284 | -5.11740 | 11568 ft | 400 kts | 271° |
| 2026-05-04 04:41 | 53.67378 | -5.16400 | 10769 ft | 395 kts | 271° |
| 2026-05-04 04:41 | 53.67469 | -5.21021 | 10369 ft | 396 kts | 271° |
| 2026-05-04 04:41 | 53.67558 | -5.25651 | 10235 ft | 393 kts | 271° |
| 2026-05-04 04:41 | 53.67547 | -5.30248 | 10098 ft | 392 kts | 264° |
| 2026-05-04 04:42 | 53.66986 | -5.34717 | 9967 ft | 390 kts | 251° |
| 2026-05-04 04:42 | 53.65867 | -5.38869 | 9849 ft | 389 kts | 240° |
| 2026-05-04 04:42 | 53.64459 | -5.42752 | 9737 ft | 388 kts | 238° |
| 2026-05-04 04:42 | 53.63078 | -5.46647 | 9611 ft | 387 kts | 239° |
| 2026-05-04 04:43 | 53.61737 | -5.50517 | 9488 ft | 387 kts | 239° |
| 2026-05-04 04:43 | 53.60269 | -5.54370 | 9337 ft | 387 kts | 230° |
| 2026-05-04 04:43 | 53.58155 | -5.57130 | 9203 ft | 386 kts | 206° |
| 2026-05-04 04:43 | 53.55633 | -5.58421 | 9091 ft | 386 kts | 187° |
| 2026-05-04 04:44 | 53.52924 | -5.58319 | 8972 ft | 385 kts | 171° |
| 2026-05-04 04:44 | 53.50423 | -5.56943 | 8590 ft | 376 kts | 152° |
| 2026-05-04 04:44 | 53.48117 | -5.54979 | 8124 ft | 369 kts | 162° |
| 2026-05-04 04:44 | 53.45592 | -5.54275 | 8067 ft | 372 kts | 174° |
| 2026-05-04 04:45 | 53.43035 | -5.53752 | 8026 ft | 377 kts | 172° |
| 2026-05-04 04:45 | 53.40438 | -5.53092 | 8005 ft | 378 kts | 173° |
| 2026-05-04 04:45 | 53.37829 | -5.53259 | 7977 ft | 374 kts | 193° |
| 2026-05-04 04:47 | 53.32803 | -5.71586 | 6528 ft | 302 kts | 294° |
| 2026-05-04 04:47 | 53.33759 | -5.74687 | 6151 ft | 300 kts | 298° |
| 2026-05-04 04:47 | 53.34782 | -5.77735 | 5649 ft | 302 kts | 299° |
| 2026-05-04 04:47 | 53.35903 | -5.80716 | 5131 ft | 304 kts | 310° |
| 2026-05-04 04:48 | 53.37583 | -5.82859 | 4623 ft | 307 kts | 334° |
| 2026-05-04 04:49 | 53.43087 | -5.93162 | 3042 ft | 292 kts | 301° |
| 2026-05-04 04:49 | 53.44118 | -5.95990 | 2999 ft | 277 kts | 299° |
| 2026-05-04 04:49 | 53.44619 | -5.98980 | 2995 ft | 262 kts | 266° |
| 2026-05-04 04:49 | 53.44025 | -6.01714 | 2991 ft | 247 kts | 230° |
| 2026-05-04 04:50 | 53.42709 | -6.03416 | 3021 ft | 234 kts | 217° |
| 2026-05-04 04:50 | 53.41647 | -6.05326 | 3017 ft | 212 kts | 231° |
| 2026-05-04 04:50 | 53.40923 | -6.07338 | 2676 ft | 203 kts | 255° |
| 2026-05-04 04:50 | 53.40861 | -6.08937 | 2101 ft | 213 kts | 271° |
| 2026-05-04 04:51 | 53.40998 | -6.11312 | 1877 ft | 195 kts | 276° |
| 2026-05-04 04:51 | 53.41193 | -6.13468 | 1667 ft | 179 kts | 279° |
| 2026-05-04 04:51 | 53.41426 | -6.15466 | 1402 ft | 173 kts | 278° |
| 2026-05-04 04:51 | 53.41592 | -6.17441 | 1231 ft | 171 kts | 278° |
| 2026-05-04 04:52 | 53.41706 | -6.19447 | 1048 ft | 173 kts | 273° |
| 2026-05-04 04:52 | 53.41802 | -6.21404 | 861 ft | 172 kts | 274° |
| 2026-05-04 04:52 | 53.41908 | -6.23385 | 513 ft | 173 kts | 275° |
| 2026-05-04 04:52 | 53.42037 | -6.25358 | 263 ft | 164 kts | 275° |
| 2026-05-04 04:53 | 53.42127 | -6.26965 | 210 ft | 126 kts | 276° |
| 2026-05-04 04:53 | 53.42186 | -6.27831 | 210 ft | 25 kts | 304° |
| 2026-05-04 04:53 | 53.42199 | -6.27862 | 210 ft | 0 kts | 306° |
| 2026-05-04 04:53 | 53.42268 | -6.28048 | 211 ft | 15 kts | 301° |
| 2026-05-04 04:54 | 53.42352 | -6.28095 | 210 ft | 11 kts | 53° |
| 2026-05-04 04:54 | 53.42360 | -6.27983 | 210 ft | 10 kts | 96° |
| 2026-05-04 04:54 | 53.42353 | -6.27865 | 210 ft | 11 kts | 97° |
| 2026-05-04 04:54 | 53.42345 | -6.27743 | 210 ft | 11 kts | 95° |
| 2026-05-04 04:55 | 53.42339 | -6.27620 | 210 ft | 10 kts | 95° |
| 2026-05-04 04:55 | 53.42333 | -6.27500 | 210 ft | 10 kts | 95° |
| 2026-05-04 04:55 | 53.42326 | -6.27379 | 210 ft | 11 kts | 96° |
| 2026-05-04 04:55 | 53.42319 | -6.27251 | 210 ft | 11 kts | 94° |
| 2026-05-04 04:56 | 53.42312 | -6.27119 | 210 ft | 11 kts | 95° |
| 2026-05-04 04:56 | 53.42304 | -6.26990 | 210 ft | 11 kts | 96° |
| 2026-05-04 04:56 | 53.42297 | -6.26860 | 210 ft | 12 kts | 95° |
| 2026-05-04 04:56 | 53.42290 | -6.26724 | 210 ft | 12 kts | 94° |
| 2026-05-04 04:57 | 53.42283 | -6.26584 | 210 ft | 12 kts | 92° |
| 2026-05-04 04:57 | 53.42277 | -6.26445 | 210 ft | 12 kts | 100° |
| 2026-05-04 04:57 | 53.42271 | -6.26380 | 210 ft | 0 kts | 96° |
| 2026-05-04 04:57 | 53.42271 | -6.26376 | 210 ft | 1 kts | 95° |
| 2026-05-04 04:58 | 53.42270 | -6.26362 | 210 ft | 2 kts | 95° |
| 2026-05-04 04:58 | 53.42267 | -6.26227 | 210 ft | 15 kts | 85° |
| 2026-05-04 04:58 | 53.42316 | -6.26072 | 210 ft | 16 kts | 45° |
| 2026-05-04 04:58 | 53.42391 | -6.25941 | 210 ft | 15 kts | 46° |
| 2026-05-04 04:59 | 53.42464 | -6.25816 | 210 ft | 15 kts | 44° |
| 2026-05-04 04:59 | 53.42535 | -6.25699 | 210 ft | 14 kts | 44° |
| 2026-05-04 04:59 | 53.42586 | -6.25609 | 210 ft | 0 kts | 46° |
| 2026-05-04 05:00 | 53.42588 | -6.25605 | 210 ft | 1 kts | 46° |
| 2026-05-04 05:00 | 53.42619 | -6.25552 | 210 ft | 10 kts | 46° |
| 2026-05-04 05:00 | 53.42792 | -6.25273 | 210 ft | 18 kts | 24° |
| 2026-05-04 05:01 | 53.42908 | -6.25325 | 210 ft | 17 kts | 336° |
| 2026-05-04 05:01 | 53.43004 | -6.25395 | 210 ft | 14 kts | 336° |
| 2026-05-04 05:01 | 53.43088 | -6.25458 | 210 ft | 13 kts | 337° |
| 2026-05-04 05:01 | 53.43172 | -6.25479 | 210 ft | 13 kts | 26° |
| 2026-05-04 05:02 | 53.43218 | -6.25350 | 210 ft | 13 kts | 68° |
| 2026-05-04 05:02 | 53.43228 | -6.25206 | 210 ft | 13 kts | 96° |
| 2026-05-04 05:02 | 53.43220 | -6.25061 | 210 ft | 12 kts | 94° |
| 2026-05-04 05:02 | 53.43213 | -6.24921 | 210 ft | 12 kts | 97° |
| 2026-05-04 05:03 | 53.43206 | -6.24800 | 210 ft | 8 kts | 96° |
| 2026-05-04 05:03 | 53.43200 | -6.24700 | 210 ft | 9 kts | 96° |
| 2026-05-04 05:04 | 53.43256 | -6.24562 | 210 ft | 2 kts | 51° |
| 2026-05-04 05:04 | 53.43265 | -6.24544 | 210 ft | 1 kts | 51° |